Time;durP1;ratioP1;P1;durP2;ratioP2;P2;SDS_P1;SDS_P2;PMS_P1;PMS_P2;Temp;Humidity;BMP_temperature;BMP_pressure;BME280_temperature;BME280_humidity;BME280_pressure;Samples;Min_cycle;Max_cycle;Signal;HPM_P1;HPM_P2
2021/08/30 00:00:45;;;;;;;6.68;5.93;;;13.50;99.90;;;;;;5054580;28;20375;-76
2021/08/30 00:03:10;;;;;;;7.30;6.60;;;13.40;99.90;;;;;;5054734;28;20036;-76
2021/08/30 00:05:36;;;;;;;8.65;7.75;;;13.50;99.90;;;;;;5052860;28;20028;-73
2021/08/30 00:08:03;;;;;;;8.68;7.78;;;13.50;99.90;;;;;;5053318;28;20175;-75
2021/08/30 00:10:29;;;;;;;11.68;8.95;;;13.50;99.90;;;;;;5052448;28;20090;-76
2021/08/30 00:12:55;;;;;;;8.23;7.30;;;13.50;99.90;;;;;;5052147;28;20033;-76
2021/08/30 00:15:21;;;;;;;8.85;7.93;;;13.50;99.90;;;;;;5053850;28;20021;-76
2021/08/30 00:17:46;;;;;;;13.05;10.63;;;13.60;99.90;;;;;;5053169;28;20033;-76
2021/08/30 00:20:20;;;;;;;12.63;10.98;;;13.60;99.90;;;;;;5054511;28;20025;-76
2021/08/30 00:22:47;;;;;;;12.80;10.25;;;13.50;99.90;;;;;;5053366;28;20055;-76
2021/08/30 00:25:13;;;;;;;12.60;10.38;;;13.60;99.90;;;;;;5053973;28;20495;-76
2021/08/30 00:27:40;;;;;;;12.25;11.05;;;13.50;99.90;;;;;;5053367;28;20041;-76
2021/08/30 00:30:08;;;;;;;11.75;10.23;;;13.50;99.90;;;;;;5052029;28;20029;-76
2021/08/30 00:32:34;;;;;;;12.63;11.23;;;13.50;99.90;;;;;;5054107;28;20029;-76
2021/08/30 00:35:00;;;;;;;12.10;10.80;;;13.50;99.90;;;;;;5052990;28;20034;-76
2021/08/30 00:37:25;;;;;;;14.20;11.00;;;13.50;99.90;;;;;;5053699;28;20025;-76
2021/08/30 00:39:51;;;;;;;13.68;12.27;;;13.50;99.90;;;;;;5052499;28;20029;-76
2021/08/30 00:42:20;;;;;;;12.15;10.93;;;13.50;99.90;;;;;;5051659;28;20033;-76
2021/08/30 00:44:45;;;;;;;12.38;11.07;;;13.60;99.90;;;;;;5052604;28;20017;-76
2021/08/30 00:47:13;;;;;;;12.02;10.82;;;13.60;99.90;;;;;;5053136;28;20038;-76
2021/08/30 00:49:39;;;;;;;13.65;10.48;;;13.60;99.90;;;;;;5053308;28;20483;-76
2021/08/30 00:52:05;;;;;;;13.27;11.82;;;13.60;99.90;;;;;;5052584;28;20192;-76
2021/08/30 00:54:32;;;;;;;12.35;11.15;;;13.60;99.90;;;;;;5053504;28;20503;-73
2021/08/30 00:56:59;;;;;;;12.80;10.63;;;13.60;99.90;;;;;;5051935;28;20106;-73
2021/08/30 00:59:25;;;;;;;12.95;11.68;;;13.70;99.90;;;;;;5053001;28;20025;-73
2021/08/30 01:01:51;;;;;;;12.80;11.35;;;13.60;99.90;;;;;;5052361;28;20109;-75
2021/08/30 01:04:18;;;;;;;12.85;11.18;;;13.70;99.90;;;;;;5052930;28;20124;-75
2021/08/30 01:06:57;;;;;;;12.35;11.23;;;13.60;99.90;;;;;;5052242;28;20395;-76
2021/08/30 01:09:33;;;;;;;12.75;11.45;;;13.70;99.90;;;;;;5051659;28;20041;-76
2021/08/30 01:12:10;;;;;;;11.07;10.05;;;13.70;99.90;;;;;;5052199;28;20033;-76
2021/08/30 01:14:57;;;;;;;13.02;11.77;;;13.70;99.90;;;;;;5052058;28;20048;-76
2021/08/30 01:17:23;;;;;;;16.38;11.52;;;13.70;99.90;;;;;;5053140;28;20064;-76
2021/08/30 01:20:16;;;;;;;15.93;12.30;;;13.70;99.90;;;;;;5051619;28;20167;-76
2021/08/30 01:22:43;;;;;;;13.60;12.20;;;13.70;99.90;;;;;;5052639;28;20048;-75
2021/08/30 01:25:14;;;;;;;13.25;11.80;;;13.70;99.90;;;;;;5052403;28;20482;-76
2021/08/30 01:27:42;;;;;;;12.93;11.73;;;13.70;99.90;;;;;;5052533;28;20044;-75
2021/08/30 01:30:11;;;;;;;15.20;12.35;;;13.70;99.90;;;;;;5050882;28;20025;-75
2021/08/30 01:32:42;;;;;;;12.18;10.95;;;13.70;99.90;;;;;;5052933;28;20051;-75
2021/08/30 01:35:10;;;;;;;12.10;10.90;;;13.70;99.90;;;;;;5051714;28;20493;-76
2021/08/30 01:37:39;;;;;;;12.98;11.68;;;13.70;99.90;;;;;;5052517;28;20116;-76
2021/08/30 01:40:08;;;;;;;12.30;11.00;;;13.70;99.90;;;;;;5051555;28;20044;-76
2021/08/30 01:42:36;;;;;;;11.13;10.02;;;13.70;99.90;;;;;;5051496;28;20068;-75
2021/08/30 01:45:05;;;;;;;11.40;10.30;;;13.70;99.90;;;;;;5051542;28;20075;-76
2021/08/30 01:47:32;;;;;;;11.85;10.70;;;13.70;99.90;;;;;;5052188;28;20033;-73
2021/08/30 01:50:03;;;;;;;9.98;9.00;;;13.70;99.90;;;;;;5051507;28;20112;-73
2021/08/30 01:52:31;;;;;;;12.68;11.25;;;13.70;99.90;;;;;;5051920;28;20037;-73
2021/08/30 01:55:04;;;;;;;11.98;10.75;;;13.80;99.90;;;;;;5051269;28;20036;-74
2021/08/30 01:57:39;;;;;;;11.55;10.27;;;13.90;99.90;;;;;;5051807;28;20071;-73
2021/08/30 02:02:49;;;;;;;12.63;10.02;;;13.80;99.90;;;;;;5051080;28;20055;-74
2021/08/30 02:05:15;;;;;;;11.05;9.95;;;13.80;99.90;;;;;;5052282;28;20021;-73
2021/08/30 02:07:41;;;;;;;11.32;10.23;;;13.70;99.90;;;;;;5052010;28;20029;-74
2021/08/30 02:10:07;;;;;;;11.18;10.07;;;13.70;99.90;;;;;;5050918;28;20037;-74
2021/08/30 02:12:32;;;;;;;10.93;9.88;;;13.70;99.90;;;;;;5050674;28;20090;-74
2021/08/30 02:14:58;;;;;;;11.73;10.55;;;13.70;99.90;;;;;;5049437;28;20028;-74
2021/08/30 02:17:33;;;;;;;10.85;9.52;;;13.80;99.90;;;;;;5052051;28;20422;-73
2021/08/30 02:20:07;;;;;;;10.75;9.73;;;13.70;99.90;;;;;;5050966;28;20029;-74
2021/08/30 02:22:40;;;;;;;11.02;10.02;;;13.80;99.90;;;;;;5051730;28;20029;-73
2021/08/30 02:25:13;;;;;;;11.90;10.70;;;13.80;99.90;;;;;;5050676;28;20027;-73
2021/08/30 02:27:52;;;;;;;11.10;9.93;;;13.80;99.90;;;;;;5051365;28;20462;-74
2021/08/30 02:30:20;;;;;;;14.75;12.02;;;13.80;99.90;;;;;;5050894;28;20482;-74
2021/08/30 02:32:48;;;;;;;11.35;10.15;;;13.80;99.90;;;;;;5051168;28;20417;-74
2021/08/30 02:35:18;;;;;;;12.27;11.05;;;13.70;99.90;;;;;;5051496;28;20087;-74
2021/08/30 02:37:45;;;;;;;13.10;11.80;;;13.70;99.90;;;;;;5050999;28;20033;-74
2021/08/30 02:40:12;;;;;;;14.48;12.75;;;13.60;99.90;;;;;;5050488;28;20506;-74
2021/08/30 02:42:39;;;;;;;15.85;13.35;;;13.60;99.90;;;;;;5051212;28;20458;-73
2021/08/30 02:45:07;;;;;;;15.32;13.05;;;13.60;99.90;;;;;;5050186;28;20777;-74
2021/08/30 02:47:35;;;;;;;13.15;11.75;;;13.50;99.90;;;;;;5050753;28;20041;-73
2021/08/30 02:50:02;;;;;;;13.38;12.02;;;13.50;99.90;;;;;;5049293;28;20036;-74
2021/08/30 02:52:29;;;;;;;12.90;11.57;;;13.50;99.90;;;;;;5050272;28;20103;-73
2021/08/30 02:54:56;;;;;;;12.73;11.43;;;13.50;99.90;;;;;;5049499;28;20025;-74
2021/08/30 02:57:23;;;;;;;14.13;11.80;;;13.40;99.90;;;;;;5050275;28;20025;-73
2021/08/30 02:59:51;;;;;;;11.50;10.40;;;13.40;99.90;;;;;;5050354;28;20025;-74
2021/08/30 03:02:22;;;;;;;11.93;10.73;;;13.50;99.90;;;;;;5051115;28;20029;-73
2021/08/30 03:04:49;;;;;;;11.88;10.10;;;13.50;99.90;;;;;;5050501;28;20033;-74
2021/08/30 03:07:15;;;;;;;12.45;10.20;;;13.50;99.90;;;;;;5050831;28;20020;-74
2021/08/30 03:09:42;;;;;;;9.85;8.88;;;13.50;99.90;;;;;;5049923;28;20029;-73
2021/08/30 03:12:09;;;;;;;12.38;8.85;;;13.40;99.90;;;;;;5049916;28;20025;-74
2021/08/30 03:14:38;;;;;;;9.98;8.98;;;13.40;99.90;;;;;;5050471;28;20029;-74
2021/08/30 03:17:09;;;;;;;9.70;8.70;;;13.40;99.90;;;;;;5048677;28;20025;-74
2021/08/30 03:19:38;;;;;;;11.20;8.07;;;13.50;99.90;;;;;;5050742;28;20033;-74
2021/08/30 03:22:04;;;;;;;7.47;6.78;;;13.50;99.90;;;;;;5050345;28;20032;-74
2021/08/30 03:24:31;;;;;;;7.57;6.88;;;13.40;99.90;;;;;;5050930;28;20174;-74
2021/08/30 03:26:58;;;;;;;7.68;6.85;;;13.40;99.90;;;;;;5050134;28;20119;-74
2021/08/30 03:29:24;;;;;;;6.75;6.15;;;13.40;99.90;;;;;;5050665;28;20037;-74
2021/08/30 03:31:51;;;;;;;8.50;7.15;;;13.40;99.90;;;;;;5049851;28;20025;-74
2021/08/30 03:34:18;;;;;;;7.38;6.68;;;13.40;99.90;;;;;;5050455;28;20025;-74
2021/08/30 03:36:45;;;;;;;7.22;6.53;;;13.40;99.90;;;;;;5050875;28;20029;-74
2021/08/30 03:39:11;;;;;;;9.00;8.10;;;13.40;99.90;;;;;;5049639;28;20079;-74
2021/08/30 03:41:40;;;;;;;7.82;7.10;;;13.40;99.90;;;;;;5050996;28;20052;-74
2021/08/30 03:44:09;;;;;;;8.85;8.00;;;13.40;99.90;;;;;;5049991;28;20029;-74
2021/08/30 03:46:36;;;;;;;8.85;7.90;;;13.40;99.90;;;;;;5050860;28;20091;-75
2021/08/30 03:49:02;;;;;;;9.23;8.43;;;13.40;99.90;;;;;;5049729;28;20064;-75
2021/08/30 03:51:28;;;;;;;12.07;9.55;;;13.40;99.90;;;;;;5050298;28;20060;-73
2021/08/30 03:53:55;;;;;;;11.15;9.27;;;13.50;99.90;;;;;;5049347;28;20025;-73
2021/08/30 03:56:23;;;;;;;10.75;9.50;;;13.50;99.90;;;;;;5050306;28;20436;-74
2021/08/30 03:58:49;;;;;;;11.15;9.40;;;13.60;99.90;;;;;;5049841;28;20029;-74
2021/08/30 04:01:19;;;;;;;12.95;9.77;;;13.50;99.90;;;;;;5049885;28;20458;-73
2021/08/30 04:03:48;;;;;;;10.93;9.73;;;13.50;99.90;;;;;;5050005;28;20116;-74
2021/08/30 04:06:15;;;;;;;11.98;10.10;;;13.50;99.90;;;;;;5050371;28;20534;-74
2021/08/30 04:08:40;;;;;;;12.88;10.00;;;13.60;99.90;;;;;;5052882;28;20029;-73
2021/08/30 04:11:09;;;;;;;11.68;10.45;;;13.60;99.90;;;;;;5052217;28;20139;-74
2021/08/30 04:13:36;;;;;;;13.25;11.05;;;13.60;99.90;;;;;;5052989;28;20029;-73
2021/08/30 04:16:02;;;;;;;12.15;10.82;;;13.60;99.90;;;;;;5050349;28;20024;-73
2021/08/30 04:18:28;;;;;;;14.32;11.38;;;13.60;99.90;;;;;;5052871;28;20056;-72
2021/08/30 04:20:53;;;;;;;12.82;10.95;;;13.60;99.90;;;;;;5051987;28;20499;-73
2021/08/30 04:23:19;;;;;;;14.00;12.32;;;13.60;99.90;;;;;;5052723;28;20028;-73
2021/08/30 04:25:45;;;;;;;15.88;11.73;;;13.60;99.90;;;;;;5052168;28;20074;-74
2021/08/30 04:28:10;;;;;;;17.70;13.38;;;13.60;99.90;;;;;;5050117;28;20086;-74
2021/08/30 04:30:36;;;;;;;17.90;13.73;;;13.60;99.90;;;;;;5052310;28;20029;-74
2021/08/30 04:33:02;;;;;;;15.60;13.07;;;13.70;99.90;;;;;;5049129;28;20024;-73
2021/08/30 04:35:28;;;;;;;17.38;14.07;;;13.70;99.90;;;;;;5051999;28;20873;-74
2021/08/30 04:37:54;;;;;;;15.30;13.15;;;13.70;99.90;;;;;;5051585;28;20052;-76
2021/08/30 04:40:19;;;;;;;16.08;13.90;;;13.70;99.90;;;;;;5052157;28;20049;-74
2021/08/30 04:42:45;;;;;;;18.08;14.43;;;13.70;99.90;;;;;;5052395;28;20029;-74
2021/08/30 04:45:11;;;;;;;20.45;16.30;;;13.70;99.90;;;;;;5051707;28;20021;-74
2021/08/30 04:47:36;;;;;;;18.95;15.38;;;13.70;99.90;;;;;;5052388;28;20043;-74
2021/08/30 04:50:03;;;;;;;19.98;16.15;;;13.70;99.90;;;;;;5051288;28;20501;-73
2021/08/30 04:52:30;;;;;;;22.02;16.17;;;13.70;99.90;;;;;;5051746;28;20029;-73
2021/08/30 04:54:55;;;;;;;20.60;14.95;;;13.70;99.90;;;;;;5051579;28;20462;-74
2021/08/30 04:57:21;;;;;;;22.25;15.73;;;13.70;99.90;;;;;;5051611;28;20044;-74
2021/08/30 04:59:47;;;;;;;24.38;16.35;;;13.70;99.90;;;;;;5052792;28;20057;-73
2021/08/30 05:02:12;;;;;;;18.83;15.00;;;13.70;99.90;;;;;;5052095;28;20114;-73
2021/08/30 05:04:38;;;;;;;19.58;14.95;;;13.60;99.90;;;;;;5052909;28;20029;-73
2021/08/30 05:07:03;;;;;;;18.30;14.30;;;13.60;99.90;;;;;;5052479;28;20032;-73
2021/08/30 05:09:29;;;;;;;18.65;14.10;;;13.70;99.90;;;;;;5050595;28;20448;-72
2021/08/30 05:11:55;;;;;;;18.33;12.50;;;13.70;99.90;;;;;;5051962;28;20037;-73
2021/08/30 05:14:21;;;;;;;14.07;11.60;;;13.70;99.90;;;;;;5052843;28;20029;-73
2021/08/30 05:16:47;;;;;;;15.07;11.63;;;13.70;99.90;;;;;;5052238;28;20028;-73
2021/08/30 05:19:13;;;;;;;16.20;13.25;;;13.70;99.90;;;;;;5051894;28;20025;-73
2021/08/30 05:21:38;;;;;;;15.45;13.25;;;13.70;99.90;;;;;;5052458;28;20033;-73
2021/08/30 05:24:07;;;;;;;18.63;14.00;;;13.70;99.90;;;;;;5052177;28;20351;-73
2021/08/30 05:26:33;;;;;;;20.63;13.32;;;13.70;99.90;;;;;;5052857;28;20039;-72
2021/08/30 05:28:59;;;;;;;20.48;13.93;;;13.70;99.90;;;;;;5051910;28;20037;-73
2021/08/30 05:31:24;;;;;;;17.00;13.88;;;13.80;99.90;;;;;;5052547;28;20077;-73
2021/08/30 05:33:50;;;;;;;17.50;14.27;;;13.80;99.90;;;;;;5052124;28;20025;-73
2021/08/30 05:36:16;;;;;;;19.60;14.13;;;13.80;99.90;;;;;;5052200;28;20029;-72
2021/08/30 05:38:41;;;;;;;18.92;14.45;;;13.80;99.90;;;;;;5045436;28;20435;-73
2021/08/30 05:41:07;;;;;;;17.38;13.63;;;13.80;99.90;;;;;;5054018;28;20052;-74
2021/08/30 05:43:33;;;;;;;18.55;14.50;;;13.80;99.90;;;;;;5053222;28;20024;-74
2021/08/30 05:45:58;;;;;;;17.50;14.93;;;13.80;99.90;;;;;;5051766;28;20035;-71
2021/08/30 05:48:24;;;;;;;19.35;14.60;;;13.70;99.90;;;;;;5052092;28;20489;-72
2021/08/30 05:50:50;;;;;;;21.42;15.77;;;13.80;99.90;;;;;;5052400;28;20032;-73
2021/08/30 05:53:15;;;;;;;19.52;14.73;;;13.80;99.90;;;;;;5050858;28;20060;-73
2021/08/30 05:55:41;;;;;;;20.90;14.85;;;13.80;99.90;;;;;;5048177;28;20035;-74
2021/08/30 05:58:06;;;;;;;18.70;14.88;;;13.80;99.90;;;;;;5051823;28;20052;-73
2021/08/30 06:00:33;;;;;;;17.55;14.52;;;13.80;99.90;;;;;;5052510;28;20028;-74
2021/08/30 06:02:59;;;;;;;22.20;16.25;;;13.80;99.90;;;;;;5049846;28;20474;-74
2021/08/30 06:05:24;;;;;;;18.42;14.60;;;13.80;99.90;;;;;;5052008;28;20048;-73
2021/08/30 06:07:50;;;;;;;21.23;15.02;;;13.90;99.90;;;;;;5051186;28;20033;-69
2021/08/30 06:10:16;;;;;;;22.20;15.27;;;13.90;99.90;;;;;;5051978;28;20091;-73
2021/08/30 06:12:42;;;;;;;19.30;15.73;;;13.90;99.90;;;;;;5051688;28;20025;-78
2021/08/30 06:15:09;;;;;;;18.15;14.45;;;14.00;99.90;;;;;;5050779;28;20044;-76
2021/08/30 06:17:34;;;;;;;19.38;14.93;;;14.10;99.90;;;;;;5051370;28;20037;-76
2021/08/30 06:20:00;;;;;;;18.88;14.50;;;14.10;99.90;;;;;;5050673;28;20212;-73
2021/08/30 06:22:26;;;;;;;18.13;13.85;;;14.20;99.90;;;;;;5051563;28;20024;-74
2021/08/30 06:24:51;;;;;;;14.90;12.55;;;14.30;99.90;;;;;;5050467;28;20029;-73
2021/08/30 06:27:20;;;;;;;14.68;12.77;;;14.50;99.90;;;;;;5050816;28;20025;-75
2021/08/30 06:29:46;;;;;;;15.90;12.85;;;14.50;99.90;;;;;;5051580;28;20045;-74
2021/08/30 06:32:11;;;;;;;13.65;12.23;;;14.60;99.90;;;;;;5050186;28;20658;-74
2021/08/30 06:34:37;;;;;;;14.55;12.07;;;14.60;99.90;;;;;;5049548;28;20029;-74
2021/08/30 06:37:03;;;;;;;17.13;11.70;;;14.60;99.90;;;;;;5047653;28;20107;-74
2021/08/30 06:39:29;;;;;;;14.90;11.95;;;14.80;99.90;;;;;;5051649;28;20033;-74
2021/08/30 06:41:55;;;;;;;13.90;11.55;;;14.90;99.90;;;;;;5050177;28;20053;-74
2021/08/30 06:44:21;;;;;;;12.18;10.55;;;15.10;99.90;;;;;;5051000;28;20025;-74
2021/08/30 06:46:46;;;;;;;14.40;10.30;;;15.10;99.90;;;;;;5048844;28;20397;-74
2021/08/30 06:49:12;;;;;;;12.65;11.05;;;15.20;99.90;;;;;;5050322;28;20106;-73
2021/08/30 06:51:38;;;;;;;12.23;9.48;;;15.20;99.90;;;;;;5050872;28;20363;-74
2021/08/30 06:54:03;;;;;;;13.10;10.93;;;15.20;99.90;;;;;;5049412;28;20356;-72
2021/08/30 06:56:29;;;;;;;13.35;10.95;;;15.20;99.90;;;;;;5051493;28;20033;-72
2021/08/30 06:58:55;;;;;;;11.60;9.70;;;15.20;99.90;;;;;;5050188;28;20431;-72
2021/08/30 07:01:21;;;;;;;14.88;10.48;;;15.20;99.90;;;;;;5050550;28;20051;-72
2021/08/30 07:03:48;;;;;;;12.80;10.85;;;15.20;99.90;;;;;;5051041;28;20389;-72
2021/08/30 07:06:14;;;;;;;11.90;10.07;;;15.10;99.90;;;;;;5049535;28;20040;-74
2021/08/30 07:08:40;;;;;;;13.63;11.20;;;15.20;99.90;;;;;;5051007;28;20069;-74
2021/08/30 07:11:06;;;;;;;12.32;10.35;;;15.20;99.90;;;;;;5050470;28;20067;-74
2021/08/30 07:13:31;;;;;;;11.48;10.25;;;15.20;99.90;;;;;;5042774;28;20514;-73
2021/08/30 07:15:57;;;;;;;14.85;10.40;;;15.10;99.90;;;;;;5050011;28;20060;-73
2021/08/30 07:18:23;;;;;;;12.23;10.57;;;15.20;99.90;;;;;;5049720;28;20376;-74
2021/08/30 07:20:48;;;;;;;13.50;10.80;;;15.30;99.90;;;;;;5051161;28;20386;-73
2021/08/30 07:23:15;;;;;;;11.93;10.68;;;15.40;99.90;;;;;;5050541;28;20044;-73
2021/08/30 07:25:41;;;;;;;11.55;9.32;;;15.60;99.90;;;;;;5050654;28;20035;-73
2021/08/30 07:28:07;;;;;;;12.30;8.90;;;15.60;99.90;;;;;;5050167;28;20033;-73
2021/08/30 07:30:32;;;;;;;10.55;9.10;;;15.70;99.90;;;;;;5050594;28;20025;-73
2021/08/30 07:32:58;;;;;;;11.05;8.88;;;15.70;99.90;;;;;;5049512;28;20120;-73
2021/08/30 07:35:24;;;;;;;11.43;9.73;;;15.70;99.90;;;;;;5049458;28;20029;-73
2021/08/30 07:37:49;;;;;;;11.57;9.48;;;15.80;99.90;;;;;;5050063;28;20035;-73
2021/08/30 07:40:15;;;;;;;10.07;9.02;;;15.70;99.90;;;;;;5052955;28;20144;-73
2021/08/30 07:42:41;;;;;;;11.50;9.30;;;15.70;99.90;;;;;;5054491;28;20120;-73
2021/08/30 07:45:07;;;;;;;14.13;9.73;;;15.70;99.90;;;;;;5053166;28;20032;-73
2021/08/30 07:47:33;;;;;;;11.25;9.10;;;15.70;99.90;;;;;;5055002;28;20040;-73
2021/08/30 07:49:59;;;;;;;10.77;8.75;;;15.70;99.90;;;;;;5053892;28;20394;-74
2021/08/30 07:52:25;;;;;;;14.88;8.70;;;15.80;99.90;;;;;;5053756;28;20056;-74
2021/08/30 07:54:52;;;;;;;10.18;8.48;;;15.90;99.90;;;;;;5053383;28;20060;-73
2021/08/30 07:57:17;;;;;;;13.30;9.10;;;15.90;99.90;;;;;;5053451;28;20029;-73
2021/08/30 07:59:43;;;;;;;12.88;9.07;;;15.90;99.90;;;;;;5054302;28;20166;-73
2021/08/30 08:02:09;;;;;;;13.57;8.82;;;15.90;99.90;;;;;;5053055;28;20033;-73
2021/08/30 08:04:35;;;;;;;9.85;8.85;;;15.80;99.90;;;;;;5053410;28;20560;-74
2021/08/30 08:07:00;;;;;;;10.23;8.80;;;15.70;99.90;;;;;;5053533;28;20029;-74
2021/08/30 08:09:26;;;;;;;11.27;10.10;;;15.70;99.90;;;;;;5053113;28;20045;-74
2021/08/30 08:11:51;;;;;;;12.27;9.77;;;15.60;99.90;;;;;;5054023;28;20475;-74
2021/08/30 08:14:17;;;;;;;10.90;9.75;;;15.50;99.90;;;;;;5053264;28;20029;-74
2021/08/30 08:16:43;;;;;;;11.18;9.27;;;15.50;99.90;;;;;;5053938;28;20135;-74
2021/08/30 08:19:09;;;;;;;10.95;9.85;;;15.40;99.90;;;;;;5052411;28;20033;-74
2021/08/30 08:21:35;;;;;;;12.68;9.15;;;15.40;99.90;;;;;;5053709;28;20044;-74
2021/08/30 08:24:03;;;;;;;10.88;9.68;;;15.40;99.90;;;;;;5052945;28;20450;-74
2021/08/30 08:26:28;;;;;;;12.38;9.23;;;15.30;99.90;;;;;;5053774;28;20263;-74
2021/08/30 08:28:54;;;;;;;10.55;9.40;;;15.30;99.90;;;;;;5054003;28;20167;-74
2021/08/30 08:31:21;;;;;;;11.20;9.93;;;15.20;99.90;;;;;;5053436;28;20475;-74
2021/08/30 08:33:48;;;;;;;11.57;8.75;;;15.20;99.90;;;;;;5054035;28;20025;-74
2021/08/30 08:36:16;;;;;;;9.82;8.25;;;15.20;99.90;;;;;;5052913;28;20078;-73
2021/08/30 08:38:42;;;;;;;10.68;8.93;;;15.20;99.90;;;;;;5054075;28;20162;-73
2021/08/30 08:41:07;;;;;;;9.68;8.50;;;15.30;99.90;;;;;;5052844;28;20056;-73
2021/08/30 08:43:34;;;;;;;9.73;8.38;;;15.20;99.90;;;;;;5053791;28;20033;-73
2021/08/30 08:46:00;;;;;;;9.20;8.30;;;15.30;99.90;;;;;;5049459;28;20063;-74
2021/08/30 08:48:26;;;;;;;10.65;8.90;;;15.30;99.90;;;;;;5052504;28;20037;-73
2021/08/30 08:50:51;;;;;;;10.15;8.27;;;15.20;99.90;;;;;;5052419;28;20378;-73
2021/08/30 08:53:17;;;;;;;9.60;8.52;;;15.20;99.90;;;;;;5052894;28;20453;-73
2021/08/30 08:55:43;;;;;;;11.98;8.63;;;15.10;99.90;;;;;;5053025;28;20029;-73
2021/08/30 08:58:13;;;;;;;10.02;8.93;;;15.20;99.90;;;;;;5051892;28;20435;-73
2021/08/30 09:00:41;;;;;;;8.93;8.02;;;15.20;99.90;;;;;;5053370;28;20497;-73
2021/08/30 09:03:18;;;;;;;9.93;7.57;;;15.30;99.90;;;;;;5053108;28;20386;-73
2021/08/30 09:05:45;;;;;;;10.63;7.78;;;15.40;99.90;;;;;;5044168;28;20029;-73
2021/08/30 09:08:41;;;;;;;10.32;8.55;;;15.50;99.90;;;;;;5052088;28;20044;-73
2021/08/30 09:11:16;;;;;;;7.88;6.82;;;15.50;99.90;;;;;;5053148;28;20064;-73
2021/08/30 09:13:49;;;;;;;8.05;7.07;;;15.80;99.90;;;;;;5053425;28;20029;-73
2021/08/30 09:16:20;;;;;;;9.27;7.90;;;16.00;99.90;;;;;;5052884;28;20078;-73
2021/08/30 09:18:46;;;;;;;10.15;8.13;;;16.20;99.90;;;;;;5053140;28;20048;-73
2021/08/30 09:21:12;;;;;;;9.40;7.95;;;16.40;99.90;;;;;;5052355;28;20036;-73
2021/08/30 09:23:40;;;;;;;9.15;8.05;;;16.40;99.90;;;;;;5052140;28;20402;-73
2021/08/30 09:26:06;;;;;;;9.05;7.63;;;16.50;99.90;;;;;;5052718;28;20098;-73
2021/08/30 09:28:38;;;;;;;10.00;8.18;;;16.50;99.90;;;;;;5052496;28;20421;-73
2021/08/30 09:31:03;;;;;;;18.73;10.07;;;16.50;99.90;;;;;;5052602;28;20471;-73
2021/08/30 09:33:29;;;;;;;10.55;8.43;;;16.60;99.90;;;;;;5051997;28;20035;-73
2021/08/30 09:35:59;;;;;;;9.77;8.70;;;16.60;99.90;;;;;;5052035;28;20021;-73
2021/08/30 09:38:27;;;;;;;11.75;9.20;;;16.70;99.90;;;;;;5051975;28;20083;-73
2021/08/30 09:41:04;;;;;;;10.45;9.02;;;16.70;99.90;;;;;;5052247;28;20501;-73
2021/08/30 09:43:29;;;;;;;10.38;8.40;;;16.70;99.90;;;;;;5051963;28;20033;-73
2021/08/30 09:46:00;;;;;;;12.18;10.50;;;16.60;99.90;;;;;;5052127;28;20040;-72
2021/08/30 09:48:27;;;;;;;12.02;9.98;;;16.60;99.90;;;;;;5051930;28;20029;-73
2021/08/30 09:51:00;;;;;;;13.43;10.65;;;16.40;99.90;;;;;;5052407;28;20051;-73
2021/08/30 09:53:26;;;;;;;15.57;11.85;;;16.10;99.90;;;;;;5051851;28;20029;-73
2021/08/30 09:55:52;;;;;;;14.00;12.23;;;15.80;99.90;;;;;;5051711;28;20117;-73
2021/08/30 09:58:18;;;;;;;15.40;12.52;;;15.60;99.90;;;;;;5046988;28;20032;-72
2021/08/30 10:00:46;;;;;;;18.63;13.48;;;15.40;99.90;;;;;;5051496;28;20084;-72
2021/08/30 10:03:14;;;;;;;15.57;13.00;;;15.40;99.90;;;;;;5051424;28;20040;-73
2021/08/30 10:05:41;;;;;;;15.80;12.57;;;15.30;99.90;;;;;;5051311;28;20143;-73
2021/08/30 10:08:07;;;;;;;18.13;13.18;;;15.20;99.90;;;;;;5050482;28;20200;-73
2021/08/30 10:10:33;;;;;;;17.42;13.73;;;15.10;99.90;;;;;;5051085;28;20536;-73
2021/08/30 10:13:00;;;;;;;17.05;13.32;;;15.00;99.90;;;;;;5052067;28;20073;-73
2021/08/30 10:15:28;;;;;;;19.00;13.52;;;15.00;99.90;;;;;;5051383;28;20029;-73
2021/08/30 10:17:55;;;;;;;17.63;13.88;;;14.90;99.90;;;;;;5051804;28;20439;-73
2021/08/30 10:20:25;;;;;;;17.30;15.10;;;14.90;99.90;;;;;;5051195;28;20055;-72
2021/08/30 10:22:59;;;;;;;24.63;16.52;;;14.90;99.90;;;;;;5051870;28;20021;-72
2021/08/30 10:25:26;;;;;;;21.38;15.93;;;14.90;99.90;;;;;;5050580;28;20040;-72
2021/08/30 10:28:01;;;;;;;24.88;17.60;;;14.80;99.90;;;;;;5051887;28;20044;-74
2021/08/30 10:30:28;;;;;;;21.73;16.90;;;14.90;99.90;;;;;;5051281;28;20383;-74
2021/08/30 10:32:58;;;;;;;22.42;17.20;;;15.00;99.90;;;;;;5052158;28;20029;-75
2021/08/30 10:35:35;;;;;;;24.88;18.35;;;15.10;99.90;;;;;;5049971;28;20025;-74
2021/08/30 10:38:15;;;;;;;25.48;19.08;;;15.00;99.90;;;;;;5051617;28;20445;-74
2021/08/30 10:40:40;;;;;;;26.75;18.98;;;14.90;99.90;;;;;;5051193;28;20472;-74
2021/08/30 10:43:14;;;;;;;23.48;17.77;;;14.90;99.90;;;;;;5051876;28;20029;-74
2021/08/30 10:45:44;;;;;;;24.40;17.88;;;14.90;99.90;;;;;;5051766;28;20021;-73
2021/08/30 10:48:12;;;;;;;28.55;20.10;;;14.90;99.90;;;;;;5050520;28;20533;-74
2021/08/30 10:50:41;;;;;;;28.40;20.48;;;14.90;99.90;;;;;;5050677;28;20124;-73
2021/08/30 10:53:15;;;;;;;24.33;17.88;;;15.00;99.90;;;;;;5050004;28;20025;-74
2021/08/30 10:55:43;;;;;;;23.25;17.65;;;15.10;99.90;;;;;;5049888;28;20489;-73
2021/08/30 10:58:16;;;;;;;21.80;16.23;;;15.10;99.90;;;;;;5050667;28;20033;-73
2021/08/30 11:00:42;;;;;;;20.80;15.40;;;15.10;99.90;;;;;;5050919;28;20029;-74
2021/08/30 11:03:08;;;;;;;21.27;16.05;;;15.10;99.90;;;;;;5051589;28;20102;-74
2021/08/30 11:05:34;;;;;;;19.85;14.80;;;15.20;99.90;;;;;;5049588;28;20053;-74
2021/08/30 11:08:00;;;;;;;15.77;12.73;;;15.30;99.90;;;;;;5050650;28;20522;-74
2021/08/30 11:10:28;;;;;;;15.10;12.43;;;15.30;99.90;;;;;;5049730;28;20113;-74
2021/08/30 11:12:57;;;;;;;16.10;12.07;;;15.50;99.90;;;;;;5051152;28;20489;-74
2021/08/30 11:15:29;;;;;;;14.57;10.53;;;15.70;99.90;;;;;;5050693;28;20459;-74
2021/08/30 11:17:58;;;;;;;15.40;10.90;;;15.90;99.90;;;;;;5051345;28;20116;-74
2021/08/30 11:20:24;;;;;;;13.68;10.05;;;16.00;99.90;;;;;;5050810;28;20021;-74
2021/08/30 11:22:54;;;;;;;11.95;9.90;;;16.20;99.90;;;;;;5051168;28;20036;-73
2021/08/30 11:25:19;;;;;;;11.23;9.20;;;16.30;99.90;;;;;;5050364;28;20021;-74
2021/08/30 11:27:45;;;;;;;10.02;8.88;;;16.40;99.90;;;;;;5050950;28;20398;-72
2021/08/30 11:30:13;;;;;;;10.30;8.40;;;16.30;99.90;;;;;;5051281;28;20025;-74
2021/08/30 11:32:40;;;;;;;10.38;8.82;;;16.40;99.90;;;;;;5050653;28;20025;-74
2021/08/30 11:35:08;;;;;;;10.05;8.25;;;16.50;99.90;;;;;;5049958;28;20068;-74
2021/08/30 11:37:35;;;;;;;11.82;8.35;;;16.70;99.90;;;;;;5048307;28;20079;-74
2021/08/30 11:40:06;;;;;;;11.85;8.85;;;16.80;99.90;;;;;;5050535;28;20510;-74
2021/08/30 11:42:33;;;;;;;12.70;8.95;;;17.00;99.90;;;;;;5050261;28;20033;-74
2021/08/30 11:45:01;;;;;;;10.38;8.85;;;17.00;99.90;;;;;;5050579;28;20099;-74
2021/08/30 11:47:28;;;;;;;16.60;9.55;;;17.00;99.90;;;;;;5049934;28;20033;-74
2021/08/30 11:49:56;;;;;;;11.25;9.45;;;16.80;99.90;;;;;;5050761;28;20029;-74
2021/08/30 11:52:31;;;;;;;13.45;10.02;;;16.60;99.90;;;;;;5050380;28;20039;-74
2021/08/30 11:55:11;;;;;;;13.32;10.65;;;16.50;99.90;;;;;;5050974;28;20385;-74
2021/08/30 11:57:39;;;;;;;;;;;16.40;99.90;;;;;;5050732;28;20036;-74
2021/08/30 12:00:07;;;;;;;13.55;10.55;;;16.50;99.90;;;;;;5050910;28;19963;-74
2021/08/30 12:02:36;;;;;;;15.48;11.52;;;16.40;99.90;;;;;;5048796;28;20033;-75
2021/08/30 12:05:04;;;;;;;14.85;11.27;;;16.40;99.90;;;;;;5049821;28;20040;-74
2021/08/30 12:07:33;;;;;;;14.65;12.23;;;16.30;99.90;;;;;;5049463;28;20082;-75
2021/08/30 12:10:00;;;;;;;16.45;11.75;;;16.30;99.90;;;;;;5050457;28;20029;-74
2021/08/30 12:12:36;;;;;;;14.05;11.88;;;16.20;99.90;;;;;;5049660;28;20091;-74
2021/08/30 12:15:06;;;;;;;18.08;13.85;;;16.20;99.90;;;;;;5050265;28;20028;-74
2021/08/30 12:17:43;;;;;;;;;;;16.00;99.90;;;;;;5050302;28;20021;-74
2021/08/30 12:20:15;;;;;;;17.50;14.20;;;15.90;99.90;;;;;;5050453;28;19912;-74
2021/08/30 12:22:47;;;;;;;17.42;12.15;;;15.90;99.90;;;;;;5048697;28;20029;-74
2021/08/30 12:25:16;;;;;;;16.00;12.90;;;15.90;99.90;;;;;;5051261;28;20350;-73
2021/08/30 12:27:43;;;;;;;13.77;11.85;;;16.00;99.90;;;;;;5053055;28;20106;-73
2021/08/30 12:30:16;;;;;;;14.32;12.82;;;16.00;99.90;;;;;;5053283;28;20028;-74
2021/08/30 12:32:47;;;;;;;18.98;14.02;;;15.90;99.90;;;;;;5053269;28;20052;-74
2021/08/30 12:35:25;;;;;;;19.13;14.48;;;15.90;99.90;;;;;;5052888;28;20029;-74
2021/08/30 12:37:52;;;;;;;16.67;13.35;;;15.80;99.90;;;;;;5054463;28;20107;-73